Time;durP1;ratioP1;P1;durP2;ratioP2;P2;SDS_P1;SDS_P2;PMS_P1;PMS_P2;Temp;Humidity;BMP_temperature;BMP_pressure;BME280_temperature;BME280_humidity;BME280_pressure;Samples;Min_cycle;Max_cycle;Signal;HPM_P1;HPM_P2
2023/04/26 00:00:32;;;;;;;11.05;5.10;;;;;;;-144.87;100.00;61487.56;4948258;28;20400;-79
2023/04/26 00:02:59;;;;;;;14.30;5.10;;;;;;;-144.87;100.00;61487.56;4931133;29;20034;-79
2023/04/26 00:05:25;;;;;;;12.20;5.82;;;;;;;-144.87;100.00;61487.56;4935617;28;20506;-79
2023/04/26 00:07:52;;;;;;;12.50;5.60;;;;;;;-144.87;100.00;61487.56;4927326;28;20031;-78
2023/04/26 00:10:18;;;;;;;8.95;5.38;;;;;;;-144.87;100.00;61487.56;4932061;29;20050;-79
2023/04/26 00:12:45;;;;;;;16.17;6.50;;;;;;;-144.87;100.00;61487.56;4921323;29;20097;-81
2023/04/26 00:15:11;;;;;;;14.18;5.63;;;;;;;-144.87;100.00;61487.56;4930551;28;20059;-79
2023/04/26 00:17:37;;;;;;;11.70;5.82;;;;;;;-144.87;100.00;61487.56;4935094;28;20408;-81
2023/04/26 00:20:06;;;;;;;14.95;5.88;;;;;;;-144.87;100.00;61487.56;4934117;28;20411;-80
2023/04/26 00:22:36;;;;;;;14.48;4.63;;;;;;;-144.87;100.00;61487.56;4926899;29;20397;-80
2023/04/26 00:25:02;;;;;;;13.50;5.18;;;;;;;-144.87;100.00;61487.56;4900583;28;20150;-79
2023/04/26 00:27:28;;;;;;;23.02;6.50;;;;;;;-144.87;100.00;61487.56;4913328;28;20047;-79
2023/04/26 00:29:55;;;;;;;10.90;5.40;;;;;;;-144.87;100.00;61487.56;4916604;28;20032;-80
2023/04/26 00:32:21;;;;;;;17.98;5.90;;;;;;;-144.87;100.00;61487.56;4952799;28;20047;-79
2023/04/26 00:34:47;;;;;;;19.70;7.28;;;;;;;-144.87;100.00;61487.56;4933843;29;20282;-79
2023/04/26 00:37:14;;;;;;;16.88;7.55;;;;;;;-144.87;100.00;61487.56;4916752;29;20051;-79
2023/04/26 00:39:40;;;;;;;19.85;8.23;;;;;;;-144.87;100.00;61487.56;4923387;29;20479;-80
2023/04/26 00:42:06;;;;;;;15.48;7.07;;;;;;;-144.87;100.00;61487.56;4912448;29;20460;-81
2023/04/26 00:44:32;;;;;;;18.50;7.82;;;;;;;-144.87;100.00;61487.56;4951073;28;20134;-80
2023/04/26 00:46:59;;;;;;;17.92;7.95;;;;;;;-144.87;100.00;61487.56;4935323;28;20039;-80
2023/04/26 00:49:25;;;;;;;17.95;8.07;;;;;;;-144.87;100.00;61487.56;4917946;29;20043;-80
2023/04/26 00:51:52;;;;;;;14.98;7.53;;;;;;;-144.87;100.00;61487.56;4931491;28;20548;-80
2023/04/26 00:54:19;;;;;;;22.63;9.13;;;;;;;-144.87;100.00;61487.56;4914179;28;20154;-79
2023/04/26 00:56:46;;;;;;;20.63;8.75;;;;;;;-144.87;100.00;61487.56;4925884;28;20121;-80
2023/04/26 00:59:12;;;;;;;24.00;8.60;;;;;;;-144.87;100.00;61487.56;4941007;28;20085;-79
2023/04/26 01:01:41;;;;;;;19.60;8.85;;;;;;;-144.87;100.00;61487.56;4914621;29;20045;-80
2023/04/26 01:04:07;;;;;;;21.70;8.88;;;;;;;-144.87;100.00;61487.56;4948208;28;20035;-81
2023/04/26 01:06:37;;;;;;;23.42;10.20;;;;;;;-144.87;100.00;61487.56;4931695;28;20043;-80
2023/04/26 01:09:07;;;;;;;20.42;8.82;;;;;;;-144.87;100.00;61487.56;4915882;28;20035;-81
2023/04/26 01:11:35;;;;;;;20.75;8.85;;;;;;;-144.87;100.00;61487.56;4918704;28;20404;-81
2023/04/26 01:14:02;;;;;;;20.33;8.98;;;;;;;-144.87;100.00;61487.56;4949818;28;20036;-79
2023/04/26 01:16:29;;;;;;;19.63;9.07;;;;;;;-144.87;100.00;61487.56;4918240;28;20070;-79
2023/04/26 01:18:56;;;;;;;21.48;9.02;;;;;;;-144.87;100.00;61487.56;4934253;28;20120;-80
2023/04/26 01:21:23;;;;;;;22.92;9.00;;;;;;;-144.87;100.00;61487.56;4917421;29;20058;-81
2023/04/26 01:23:51;;;;;;;20.08;9.73;;;;;;;-144.87;100.00;61487.56;4929786;28;20038;-81
2023/04/26 01:26:18;;;;;;;20.90;9.27;;;;;;;-144.87;100.00;61487.56;4927689;28;20047;-81
2023/04/26 01:28:48;;;;;;;20.10;10.10;;;;;;;-144.87;100.00;61487.56;4916833;29;20042;-81
2023/04/26 01:31:15;;;;;;;31.97;10.57;;;;;;;-144.87;100.00;61487.56;4933019;28;20038;-80
2023/04/26 01:33:41;;;;;;;23.80;9.35;;;;;;;-144.87;100.00;61487.56;4916792;28;20077;-81
2023/04/26 01:36:10;;;;;;;23.05;9.55;;;;;;;-144.87;100.00;61487.56;4948662;28;20094;-81
2023/04/26 01:38:37;;;;;;;24.25;10.07;;;;;;;-144.87;100.00;61487.56;4931385;28;20043;-81
2023/04/26 01:41:03;;;;;;;26.48;9.80;;;;;;;-144.87;100.00;61487.56;4949424;28;20050;-79
2023/04/26 01:43:31;;;;;;;21.70;9.88;;;;;;;-144.87;100.00;61487.56;4918410;28;20039;-81
2023/04/26 01:45:57;;;;;;;21.38;10.40;;;;;;;-144.87;100.00;61487.56;4949177;28;20310;-81
2023/04/26 01:48:32;;;;;;;21.42;9.73;;;;;;;-144.87;100.00;61487.56;4936335;28;20046;-81
2023/04/26 01:51:00;;;;;;;27.08;10.10;;;;;;;-144.87;100.00;61487.56;4932542;28;20035;-81
2023/04/26 01:53:26;;;;;;;18.95;9.18;;;;;;;-144.87;100.00;61487.56;4930501;28;20035;-79
2023/04/26 01:55:54;;;;;;;27.67;10.30;;;;;;;-144.87;100.00;61487.56;4915907;29;20118;-81
2023/04/26 01:58:20;;;;;;;22.55;10.23;;;;;;;-144.87;100.00;61487.56;4932329;28;20043;-80
2023/04/26 02:00:48;;;;;;;24.98;9.07;;;;;;;-144.87;100.00;61487.56;4916072;28;20563;-81
2023/04/26 02:03:15;;;;;;;22.48;9.93;;;;;;;-144.87;100.00;61487.56;4931256;28;20045;-81
2023/04/26 02:05:41;;;;;;;28.35;11.10;;;;;;;-144.87;100.00;61487.56;4930866;28;21440;-81
2023/04/26 02:08:08;;;;;;;25.08;9.55;;;;;;;-144.87;100.00;61487.56;4899272;28;20047;-81
2023/04/26 02:10:34;;;;;;;30.50;11.18;;;;;;;-144.87;100.00;61487.56;4931091;29;20512;-80
2023/04/26 02:13:00;;;;;;;33.88;12.25;;;;;;;-144.87;100.00;61487.56;4928852;28;20073;-81
2023/04/26 02:15:30;;;;;;;24.73;10.68;;;;;;;-144.87;100.00;61487.56;4927225;28;20055;-81
2023/04/26 02:17:56;;;;;;;27.98;11.88;;;;;;;-144.87;100.00;61487.56;4915809;28;20090;-81
2023/04/26 02:20:22;;;;;;;27.63;12.30;;;;;;;-144.87;100.00;61487.56;4916144;28;20122;-81
2023/04/26 02:22:49;;;;;;;37.90;13.00;;;;;;;-144.87;100.00;61487.56;4915821;28;20168;-79
2023/04/26 02:25:16;;;;;;;25.45;11.98;;;;;;;-144.87;100.00;61487.56;4930468;28;20527;-78
2023/04/26 02:27:42;;;;;;;31.55;11.48;;;;;;;-144.87;100.00;61487.56;4950193;28;20118;-81
2023/04/26 02:30:08;;;;;;;30.67;11.70;;;;;;;-144.87;100.00;61487.56;4930074;28;20034;-79
2023/04/26 02:32:35;;;;;;;29.23;12.57;;;;;;;-144.87;100.00;61487.56;4949686;28;20122;-79
2023/04/26 02:35:01;;;;;;;29.52;11.10;;;;;;;-144.87;100.00;61487.56;4928871;28;20104;-79
2023/04/26 02:37:28;;;;;;;25.27;11.98;;;;;;;-144.87;100.00;61487.56;4915628;28;20043;-80
2023/04/26 02:39:54;;;;;;;33.03;13.05;;;;;;;-144.87;100.00;61487.56;4930865;28;20390;-79
2023/04/26 02:42:21;;;;;;;27.77;12.07;;;;;;;-144.87;100.00;61487.56;4926327;29;20413;-79
2023/04/26 02:44:48;;;;;;;31.65;12.02;;;;;;;-144.87;100.00;61487.56;4931003;28;20047;-81
2023/04/26 02:47:15;;;;;;;28.85;11.88;;;;;;;-144.87;100.00;61487.56;4915205;28;20047;-79
2023/04/26 02:49:42;;;;;;;30.52;12.85;;;;;;;-144.87;100.00;61487.56;4949760;28;20987;-81
2023/04/26 02:52:08;;;;;;;31.23;12.45;;;;;;;-144.87;100.00;61487.56;4915350;28;20065;-79
2023/04/26 02:54:35;;;;;;;30.73;12.23;;;;;;;-144.87;100.00;61487.56;4938283;28;20035;-79
2023/04/26 02:57:02;;;;;;;31.38;12.45;;;;;;;-144.87;100.00;61487.56;4917085;28;20035;-79
2023/04/26 02:59:29;;;;;;;35.22;13.95;;;;;;;-144.87;100.00;61487.56;4914899;28;20035;-79
2023/04/26 03:01:55;;;;;;;35.15;13.48;;;;;;;-144.87;100.00;61487.56;4927772;28;20087;-81
2023/04/26 03:04:21;;;;;;;29.58;12.65;;;;;;;-144.87;100.00;61487.56;4915805;29;20035;-81
2023/04/26 03:06:48;;;;;;;35.10;13.13;;;;;;;-144.87;100.00;61487.56;4915341;28;20131;-79
2023/04/26 03:09:15;;;;;;;32.30;13.68;;;;;;;-144.87;100.00;61487.56;4931390;28;20058;-80
2023/04/26 03:11:41;;;;;;;41.90;13.32;;;;;;;-144.87;100.00;61487.56;4913236;28;20070;-80
2023/04/26 03:14:08;;;;;;;37.40;13.80;;;;;;;-144.87;100.00;61487.56;4914544;28;20101;-80
2023/04/26 03:16:41;;;;;;;36.35;14.82;;;;;;;-144.87;100.00;61487.56;4931774;29;20046;-79
2023/04/26 03:19:08;;;;;;;38.08;13.77;;;;;;;-144.87;100.00;61487.56;4914635;29;20043;-79
2023/04/26 03:21:36;;;;;;;33.85;13.93;;;;;;;-144.87;100.00;61487.56;4946938;28;20047;-79
2023/04/26 03:24:03;;;;;;;33.15;13.70;;;;;;;-144.87;100.00;61487.56;4930731;28;20038;-79
2023/04/26 03:26:30;;;;;;;35.05;13.98;;;;;;;-144.87;100.00;61487.56;4926165;29;20122;-79
2023/04/26 03:28:56;;;;;;;34.70;12.82;;;;;;;-144.87;100.00;61487.56;4915458;28;20054;-79
2023/04/26 03:31:22;;;;;;;35.25;13.57;;;;;;;-144.87;100.00;61487.56;4933521;28;20039;-79
2023/04/26 03:33:50;;;;;;;33.65;14.15;;;;;;;-144.87;100.00;61487.56;4930082;28;20032;-79
2023/04/26 03:36:16;;;;;;;40.55;14.25;;;;;;;-144.87;100.00;61487.56;4918375;28;20027;-78
2023/04/26 03:38:43;;;;;;;37.75;14.55;;;;;;;-144.87;100.00;61487.56;4948068;28;20023;-78
2023/04/26 03:41:10;;;;;;;37.80;15.27;;;;;;;-144.87;100.00;61487.56;4948429;28;20174;-78
2023/04/26 03:43:36;;;;;;;41.08;15.20;;;;;;;-144.87;100.00;61487.56;4934256;28;20047;-78
2023/04/26 03:46:03;;;;;;;39.10;15.18;;;;;;;-144.87;100.00;61487.56;4947372;28;20050;-80
2023/04/26 03:48:29;;;;;;;38.88;14.00;;;;;;;-144.87;100.00;61487.56;4953221;28;20051;-79
2023/04/26 03:50:55;;;;;;;39.92;14.57;;;;;;;-144.87;100.00;61487.56;4914642;28;20035;-81
2023/04/26 03:53:21;;;;;;;37.47;14.20;;;;;;;-144.87;100.00;61487.56;4930351;28;20075;-78
2023/04/26 03:55:48;;;;;;;34.63;13.45;;;;;;;-144.87;100.00;61487.56;4946944;28;20047;-79
2023/04/26 03:58:15;;;;;;;41.92;15.13;;;;;;;-144.87;100.00;61487.56;4913191;28;20047;-79
2023/04/26 04:00:42;;;;;;;59.38;13.90;;;;;;;-144.87;100.00;61487.56;4902384;29;20079;-80
2023/04/26 04:03:08;;;;;;;39.15;13.52;;;;;;;-144.87;100.00;61487.56;4934537;28;20777;-81
2023/04/26 04:05:35;;;;;;;37.28;14.50;;;;;;;-144.87;100.00;61487.56;4912422;28;20028;-80
2023/04/26 04:08:01;;;;;;;40.65;15.30;;;;;;;-144.87;100.00;61487.56;4933657;28;20155;-79
2023/04/26 04:10:28;;;;;;;32.30;13.82;;;;;;;-144.87;100.00;61487.56;4932089;29;20066;-79
2023/04/26 04:12:55;;;;;;;37.65;14.45;;;;;;;-144.87;100.00;61487.56;4915271;28;20125;-79
2023/04/26 04:15:21;;;;;;;34.90;15.30;;;;;;;-144.87;100.00;61487.56;4918469;28;20067;-81
2023/04/26 04:17:48;;;;;;;35.53;13.15;;;;;;;-144.87;100.00;61487.56;4914084;28;20027;-79
2023/04/26 04:20:15;;;;;;;40.42;14.10;;;;;;;-144.87;100.00;61487.56;4949348;28;20093;-79
2023/04/26 04:22:42;;;;;;;38.40;13.68;;;;;;;-144.87;100.00;61487.56;4932225;28;20035;-80
2023/04/26 04:25:09;;;;;;;40.00;13.20;;;;;;;-144.87;100.00;61487.56;4936979;28;20039;-79
2023/04/26 04:27:36;;;;;;;33.70;13.93;;;;;;;-144.87;100.00;61487.56;4915509;28;20413;-79
2023/04/26 04:30:06;;;;;;;33.72;13.70;;;;;;;-144.87;100.00;61487.56;4929155;28;20114;-80
2023/04/26 04:32:34;;;;;;;36.17;14.55;;;;;;;-144.87;100.00;61487.56;4915654;28;20035;-80
2023/04/26 04:35:00;;;;;;;38.08;14.77;;;;;;;-144.87;100.00;61487.56;4927915;28;20050;-80
2023/04/26 04:37:32;;;;;;;52.25;16.38;;;;;;;-144.87;100.00;61487.56;4927550;28;20077;-80
2023/04/26 04:39:59;;;;;;;42.30;13.68;;;;;;;-144.87;100.00;61487.56;4915916;28;20464;-80
2023/04/26 04:42:27;;;;;;;34.08;12.65;;;;;;;-144.87;100.00;61487.56;4929310;28;20043;-80
2023/04/26 04:44:54;;;;;;;35.17;13.85;;;;;;;-144.87;100.00;61487.56;4913315;29;20039;-79
2023/04/26 04:47:21;;;;;;;29.15;11.23;;;;;;;-144.87;100.00;61487.56;4916315;28;20043;-79
2023/04/26 04:49:47;;;;;;;25.95;11.20;;;;;;;-144.87;100.00;61487.56;4916465;28;20053;-79
2023/04/26 04:52:13;;;;;;;28.60;11.63;;;;;;;-144.87;100.00;61487.56;4950127;28;20070;-79
2023/04/26 04:54:40;;;;;;;43.38;12.38;;;;;;;-144.87;100.00;61487.56;4914095;28;20070;-80
2023/04/26 04:57:07;;;;;;;29.60;11.85;;;;;;;-144.87;100.00;61487.56;4918938;28;20051;-81
2023/04/26 04:59:33;;;;;;;42.72;15.43;;;;;;;-144.87;100.00;61487.56;4953913;28;20065;-81
2023/04/26 05:02:00;;;;;;;42.67;13.55;;;;;;;-144.87;100.00;61487.56;4939771;28;20043;-79
2023/04/26 05:04:27;;;;;;;36.25;13.82;;;;;;;-144.87;100.00;61487.56;4905986;28;20401;-79
2023/04/26 05:06:53;;;;;;;36.38;13.63;;;;;;;-144.87;100.00;61487.56;4914889;28;20560;-79
2023/04/26 05:09:21;;;;;;;47.08;14.10;;;;;;;-144.87;100.00;61487.56;4931939;29;20122;-86
2023/04/26 05:11:48;;;;;;;34.65;14.32;;;;;;;-144.87;100.00;61487.56;4914285;28;20047;-79
2023/04/26 05:14:15;;;;;;;32.22;12.68;;;;;;;-144.87;100.00;61487.56;4926584;28;20035;-79
2023/04/26 05:16:41;;;;;;;26.48;11.02;;;;;;;-144.87;100.00;61487.56;4928053;28;20130;-79
2023/04/26 05:19:08;;;;;;;20.55;10.73;;;;;;;-144.87;100.00;61487.56;4916039;28;20090;-79
2023/04/26 05:21:34;;;;;;;21.90;9.15;;;;;;;-144.87;100.00;61487.56;4915620;28;20052;-79
2023/04/26 05:24:01;;;;;;;18.35;7.97;;;;;;;-144.87;100.00;61487.56;4932481;28;20035;-79
2023/04/26 05:26:27;;;;;;;19.00;8.25;;;;;;;-144.87;100.00;61487.56;4929471;28;20094;-79
2023/04/26 05:29:32;;;;;;;20.42;8.45;;;;;;;-144.87;100.00;61487.56;4937128;28;20495;-79
2023/04/26 05:32:03;;;;;;;16.55;7.75;;;;;;;-144.87;100.00;61487.56;4917118;28;20090;-79
2023/04/26 05:34:50;;;;;;;15.98;6.95;;;;;;;-144.87;100.00;61487.56;4936419;28;20055;-79
2023/04/26 05:37:17;;;;;;;13.00;7.32;;;;;;;-144.87;100.00;61487.56;4915164;28;20043;-79
2023/04/26 05:39:43;;;;;;;18.55;8.63;;;;;;;-144.87;100.00;61487.56;4931022;28;20035;-79
2023/04/26 05:42:10;;;;;;;13.10;7.53;;;;;;;-144.87;100.00;61487.56;4931071;28;20074;-79
2023/04/26 05:44:36;;;;;;;16.55;7.38;;;;;;;-144.87;100.00;61487.56;4920975;29;20039;-79
2023/04/26 05:47:04;;;;;;;18.60;7.80;;;;;;;-144.87;100.00;61487.56;4919919;29;20060;-79
2023/04/26 05:49:30;;;;;;;19.27;7.50;;;;;;;-144.87;100.00;61487.56;4934366;28;20082;-79
2023/04/26 05:52:02;;;;;;;14.63;7.28;;;;;;;-144.87;100.00;61487.56;4920074;28;20039;-81
2023/04/26 05:54:28;;;;;;;17.90;7.05;;;;;;;-144.87;100.00;61487.56;4949230;28;20130;-82
2023/04/26 05:56:55;;;;;;;15.27;6.40;;;;;;;-144.87;100.00;61487.56;4917988;28;20059;-81
2023/04/26 05:59:22;;;;;;;13.15;5.90;;;;;;;-144.87;100.00;61487.56;4921071;29;20520;-84
2023/04/26 06:01:48;;;;;;;13.07;5.93;;;;;;;-144.87;100.00;61487.56;4935593;28;20043;-81
2023/04/26 06:04:15;;;;;;;10.48;4.80;;;;;;;-144.87;100.00;61487.56;4931836;28;20028;-82
2023/04/26 06:06:49;;;;;;;14.20;4.00;;;;;;;-144.87;100.00;61487.56;4931790;29;21109;-82
2023/04/26 06:09:16;;;;;;;10.98;4.32;;;;;;;-144.87;100.00;61487.56;4917394;28;20039;-84
2023/04/26 06:11:42;;;;;;;10.30;4.35;;;;;;;-144.87;100.00;61487.56;4917722;29;20560;-81
2023/04/26 06:14:08;;;;;;;10.52;4.55;;;;;;;-144.87;100.00;61487.56;4917828;28;20053;-81
2023/04/26 06:16:34;;;;;;;10.75;4.82;;;;;;;-144.87;100.00;61487.56;4919124;29;20111;-81
2023/04/26 06:19:01;;;;;;;15.13;4.20;;;;;;;-144.87;100.00;61487.56;4919469;28;20043;-81
2023/04/26 06:21:28;;;;;;;13.50;4.22;;;;;;;-144.87;100.00;61487.56;4937176;28;20054;-81
2023/04/26 06:23:55;;;;;;;8.95;3.85;;;;;;;-144.87;100.00;61487.56;4918478;29;20035;-80
2023/04/26 06:26:24;;;;;;;14.15;4.68;;;;;;;-144.87;100.00;61487.56;4917115;29;20394;-80
2023/04/26 06:28:50;;;;;;;12.98;5.07;;;;;;;-144.87;100.00;61487.56;4953444;28;20471;-81
2023/04/26 06:31:20;;;;;;;10.38;4.30;;;;;;;-144.87;100.00;61487.56;4921473;28;20035;-85
2023/04/26 06:33:47;;;;;;;11.50;3.90;;;;;;;-144.87;100.00;61487.56;4919162;28;20040;-82
2023/04/26 06:36:14;;;;;;;11.45;4.75;;;;;;;-144.87;100.00;61487.56;4918095;28;20065;-80
2023/04/26 06:38:41;;;;;;;14.52;4.20;;;;;;;-144.87;100.00;61487.56;4937277;28;20082;-80
2023/04/26 06:41:07;;;;;;;10.18;4.15;;;;;;;-144.87;100.00;61487.56;4917340;29;20429;-81
2023/04/26 06:43:34;;;;;;;8.98;4.20;;;;;;;-144.87;100.00;61487.56;4931690;28;20085;-81
2023/04/26 06:46:06;;;;;;;12.60;4.80;;;;;;;-144.87;100.00;61487.56;4919200;28;20495;-81
2023/04/26 06:48:33;;;;;;;12.40;4.32;;;;;;;-144.87;100.00;61487.56;4933251;29;20051;-81
2023/04/26 06:51:05;;;;;;;11.55;3.85;;;;;;;-144.87;100.00;61487.56;4944916;28;20035;-81
2023/04/26 06:53:31;;;;;;;9.82;3.95;;;;;;;-144.87;100.00;61487.56;4912021;29;20589;-83
2023/04/26 06:55:58;;;;;;;11.40;4.05;;;;;;;-144.87;100.00;61487.56;4922776;29;20055;-81
2023/04/26 06:58:24;;;;;;;8.75;3.83;;;;;;;-144.87;100.00;61487.56;4904579;28;20405;-82
2023/04/26 07:00:50;;;;;;;13.10;4.25;;;;;;;-144.87;100.00;61487.56;4949722;28;20055;-81
2023/04/26 07:03:17;;;;;;;9.45;3.70;;;;;;;-144.87;100.00;61487.56;4920179;29;20219;-81
2023/04/26 07:05:43;;;;;;;14.75;4.03;;;;;;;-144.87;100.00;61487.56;4920931;29;20027;-80
2023/04/26 07:08:10;;;;;;;11.30;3.90;;;;;;;-144.87;100.00;61487.56;4921178;29;20094;-81
2023/04/26 07:10:38;;;;;;;9.43;3.67;;;;;;;-144.87;100.00;61487.56;4916719;29;20564;-81
2023/04/26 07:13:07;;;;;;;9.30;3.85;;;;;;;-144.87;100.00;61487.56;4931268;29;20243;-80
2023/04/26 07:15:35;;;;;;;8.68;3.13;;;;;;;-144.87;100.00;61487.56;4946298;29;20524;-81
2023/04/26 07:18:01;;;;;;;12.63;3.25;;;;;;;-144.87;100.00;61487.56;4905318;29;20039;-80
2023/04/26 07:20:27;;;;;;;6.25;3.35;;;;;;;-144.87;100.00;61487.56;4935919;29;20039;-80
2023/04/26 07:22:53;;;;;;;8.38;2.95;;;;;;;-144.87;100.00;61487.56;4935598;29;20031;-86
2023/04/26 07:25:20;;;;;;;14.68;4.10;;;;;;;-144.87;100.00;61487.56;4911087;29;20153;-81
2023/04/26 07:27:46;;;;;;;10.15;3.17;;;;;;;-144.87;100.00;61487.56;4927512;28;20039;-81
2023/04/26 07:30:12;;;;;;;8.82;3.10;;;;;;;-144.87;100.00;61487.56;4920276;28;20674;-81
2023/04/26 07:32:39;;;;;;;8.07;2.72;;;;;;;-144.87;100.00;61487.56;4921099;29;20130;-80
2023/04/26 07:35:06;;;;;;;5.63;3.00;;;;;;;-144.87;100.00;61487.56;4918436;29;20481;-80
2023/04/26 07:37:33;;;;;;;8.88;3.70;;;;;;;-144.87;100.00;61487.56;4934366;29;20135;-81
2023/04/26 07:39:59;;;;;;;9.25;3.50;;;;;;;-144.87;100.00;61487.56;4914498;28;20039;-81
2023/04/26 07:42:25;;;;;;;9.90;4.20;;;;;;;-144.87;100.00;61487.56;4904224;29;20404;-80
2023/04/26 07:44:51;;;;;;;11.07;3.50;;;;;;;-144.87;100.00;61487.56;4918268;29;20476;-80
2023/04/26 07:47:18;;;;;;;7.43;3.70;;;;;;;-144.87;100.00;61487.56;4950917;28;20055;-82
2023/04/26 07:49:44;;;;;;;7.78;2.15;;;;;;;-144.87;100.00;61487.56;4915940;28;20060;-80
2023/04/26 07:52:10;;;;;;;8.65;2.80;;;;;;;-144.87;100.00;61487.56;4945728;29;20062;-81
2023/04/26 07:54:38;;;;;;;8.32;2.95;;;;;;;-144.87;100.00;61487.56;4902942;29;20047;-80
2023/04/26 07:57:04;;;;;;;11.50;3.15;;;;;;;-144.87;100.00;61487.56;4900962;29;20102;-80
2023/04/26 07:59:31;;;;;;;9.80;3.70;;;;;;;-144.87;100.00;61487.56;4932043;28;20035;-81
2023/04/26 08:01:57;;;;;;;11.25;3.72;;;;;;;-144.87;100.00;61487.56;4928013;28;20047;-80
2023/04/26 08:04:32;;;;;;;9.77;2.85;;;;;;;-144.87;100.00;61487.56;4924331;28;20134;-81
2023/04/26 08:07:00;;;;;;;12.52;4.13;;;;;;;-144.87;100.00;61487.56;4927943;28;20126;-80
2023/04/26 08:09:27;;;;;;;8.93;3.63;;;;;;;-144.87;100.00;61487.56;4923402;28;20027;-81
2023/04/26 08:11:53;;;;;;;9.45;3.45;;;;;;;-144.87;100.00;61487.56;4926724;29;20493;-79
2023/04/26 08:14:20;;;;;;;10.07;3.67;;;;;;;-144.87;100.00;61487.56;4964234;28;20043;-80
2023/04/26 08:16:46;;;;;;;14.15;3.53;;;;;;;-144.87;100.00;61487.56;4918942;29;20660;-79
2023/04/26 08:19:12;;;;;;;10.52;3.58;;;;;;;-144.87;100.00;61487.56;4933010;29;20130;-80
2023/04/26 08:21:40;;;;;;;6.93;2.90;;;;;;;-144.87;100.00;61487.56;4934876;29;20062;-80
2023/04/26 08:24:06;;;;;;;9.93;2.88;;;;;;;-144.87;100.00;61487.56;4953559;29;20035;-81
2023/04/26 08:26:33;;;;;;;9.32;3.03;;;;;;;-144.87;100.00;61487.56;4933660;29;20043;-79
2023/04/26 08:28:59;;;;;;;10.30;2.90;;;;;;;-144.87;100.00;61487.56;4945262;28;20034;-79
2023/04/26 08:31:26;;;;;;;8.27;2.92;;;;;;;-144.87;100.00;61487.56;4939007;29;20039;-80
2023/04/26 08:33:52;;;;;;;9.00;2.85;;;;;;;-144.87;100.00;61487.56;4920991;28;20062;-81
2023/04/26 08:36:19;;;;;;;9.30;2.28;;;;;;;-144.87;100.00;61487.56;4915545;29;20605;-81
2023/04/26 08:38:45;;;;;;;6.70;2.15;;;;;;;-144.87;100.00;61487.56;4916549;29;20039;-80
2023/04/26 08:41:15;;;;;;;12.18;2.70;;;;;;;-144.87;100.00;61487.56;4936816;29;20110;-80
2023/04/26 08:43:42;;;;;;;6.47;3.47;;;;;;;-144.87;100.00;61487.56;4950842;29;20047;-81
2023/04/26 08:46:13;;;;;;;11.07;3.05;;;;;;;-144.87;100.00;61487.56;4903260;29;20660;-80
2023/04/26 08:48:39;;;;;;;;;;;;;;;-144.87;100.00;61487.56;4915820;29;20465;-80
2023/04/26 08:51:07;;;;;;;10.73;2.40;;;;;;;-144.87;100.00;61487.56;4942034;29;19919;-81
2023/04/26 08:53:34;;;;;;;15.20;2.90;;;;;;;-144.87;100.00;61487.56;4922164;28;20035;-79
2023/04/26 08:56:02;;;;;;;9.77;2.20;;;;;;;-144.87;100.00;61487.56;4907733;29;20511;-80
2023/04/26 08:58:28;;;;;;;5.50;2.00;;;;;;;-144.87;100.00;61487.56;4932007;28;20046;-79
2023/04/26 09:00:54;;;;;;;8.32;2.08;;;;;;;-144.87;100.00;61487.56;4919670;28;20043;-79
2023/04/26 09:03:25;;;;;;;5.50;2.30;;;;;;;-144.87;100.00;61487.56;4901146;28;20043;-83
2023/04/26 09:05:51;;;;;;;9.70;2.05;;;;;;;-144.87;100.00;61487.56;4933814;29;20041;-79
2023/04/26 09:08:18;;;;;;;7.35;2.03;;;;;;;-144.87;100.00;61487.56;4899583;28;20128;-80
2023/04/26 09:10:44;;;;;;;6.45;2.08;;;;;;;-144.87;100.00;61487.56;4919593;29;20031;-79
2023/04/26 09:13:11;;;;;;;8.00;2.00;;;;;;;-144.87;100.00;61487.56;4935640;28;20051;-80
2023/04/26 09:15:38;;;;;;;8.23;2.00;;;;;;;-144.87;100.00;61487.56;4922165;29;20043;-81
2023/04/26 09:18:19;;;;;;;4.60;1.73;;;;;;;-144.87;100.00;61487.56;4911893;29;20036;-81
2023/04/26 09:21:00;;;;;;;9.48;2.00;;;;;;;-144.87;100.00;61487.56;4934908;29;20059;-81
2023/04/26 09:23:26;;;;;;;;;;;;;;;-144.87;100.00;61487.56;4931072;29;20070;-81
2023/04/26 09:25:52;;;;;;;8.57;2.40;;;;;;;-144.87;100.00;61487.56;4949893;29;19950;-81
2023/04/26 09:28:21;;;;;;;9.13;2.17;;;;;;;-144.87;100.00;61487.56;4931468;29;20043;-81
2023/04/26 09:30:48;;;;;;;12.70;2.13;;;;;;;-144.87;100.00;61487.56;4931803;29;20046;-81
2023/04/26 09:33:14;;;;;;;8.80;2.20;;;;;;;-144.87;100.00;61487.56;4910586;29;20047;-81
2023/04/26 09:35:42;;;;;;;7.88;2.08;;;;;;;-144.87;100.00;61487.56;4917215;29;20453;-80
2023/04/26 09:38:18;;;;;;;9.88;2.47;;;;;;;-144.87;100.00;61487.56;4946670;29;20463;-81
2023/04/26 09:40:50;;;;;;;9.02;2.50;;;;;;;-144.87;100.00;61487.56;4937263;29;20058;-81
2023/04/26 09:43:18;;;;;;;12.82;2.90;;;;;;;-144.87;100.00;61487.56;4952236;29;20408;-80
2023/04/26 09:45:48;;;;;;;10.18;2.60;;;;;;;-144.87;100.00;61487.56;4919633;29;20127;-81
2023/04/26 09:48:29;;;;;;;11.60;2.58;;;;;;;-144.87;100.00;61487.56;4937168;29;20102;-81
2023/04/26 09:50:57;;;;;;;6.95;2.60;;;;;;;-144.87;100.00;61487.56;4922077;29;20106;-80
2023/04/26 09:53:30;;;;;;;7.95;2.40;;;;;;;-144.87;100.00;61487.56;4947801;29;20063;-81
2023/04/26 09:56:05;;;;;;;9.07;2.65;;;;;;;-144.87;100.00;61487.56;4951125;29;20400;-81
2023/04/26 09:58:31;;;;;;;7.50;2.70;;;;;;;-144.87;100.00;61487.56;4936666;29;20035;-81
2023/04/26 10:00:58;;;;;;;10.63;2.63;;;;;;;-144.87;100.00;61487.56;4918333;29;20091;-80
2023/04/26 10:03:25;;;;;;;19.15;2.92;;;;;;;-144.87;100.00;61487.56;4920733;29;20404;-81
2023/04/26 10:05:52;;;;;;;6.00;2.80;;;;;;;-144.87;100.00;61487.56;4936383;29;20408;-80
2023/04/26 10:08:19;;;;;;;11.40;3.38;;;;;;;-144.87;100.00;61487.56;4940533;29;20063;-81
2023/04/26 10:10:45;;;;;;;13.13;3.38;;;;;;;-144.87;100.00;61487.56;4918522;29;20039;-80
2023/04/26 10:13:12;;;;;;;10.80;3.47;;;;;;;-144.87;100.00;61487.56;4914694;29;20035;-81
2023/04/26 10:15:39;;;;;;;6.05;2.80;;;;;;;-144.87;100.00;61487.56;4914515;29;20043;-81
2023/04/26 10:18:06;;;;;;;5.85;3.00;;;;;;;-144.87;100.00;61487.56;4936590;28;20074;-81
2023/04/26 10:20:32;;;;;;;7.32;2.92;;;;;;;-144.87;100.00;61487.56;4937010;29;20406;-81
2023/04/26 10:23:00;;;;;;;10.18;3.08;;;;;;;-144.87;100.00;61487.56;4917587;29;20071;-80
2023/04/26 10:25:40;;;;;;;7.70;3.30;;;;;;;-144.87;100.00;61487.56;4945028;29;20027;-81
2023/04/26 10:28:07;;;;;;;8.85;3.58;;;;;;;-144.87;100.00;61487.56;4919602;29;20031;-81
2023/04/26 10:31:00;;;;;;;12.00;3.58;;;;;;;-144.87;100.00;61487.56;4936525;29;20031;-81
2023/04/26 10:33:26;;;;;;;7.07;3.22;;;;;;;-144.87;100.00;61487.56;4936799;29;20039;-81
2023/04/26 10:36:13;;;;;;;6.20;3.45;;;;;;;-144.87;100.00;61487.56;4917418;29;20035;-81
2023/04/26 10:39:15;;;;;;;8.02;3.20;;;;;;;-144.87;100.00;61487.56;4931349;29;20042;-80
2023/04/26 10:41:41;;;;;;;7.80;2.40;;;;;;;-144.87;100.00;61487.56;4944760;29;20063;-80
2023/04/26 10:44:41;;;;;;;11.48;3.22;;;;;;;-144.87;100.00;61487.56;4953393;28;20051;-80
2023/04/26 10:47:33;;;;;;;10.07;2.83;;;;;;;-144.87;100.00;61487.56;4920103;28;20394;-81
2023/04/26 10:50:03;;;;;;;7.25;2.35;;;;;;;-144.87;100.00;61487.56;4920617;29;20533;-81
2023/04/26 10:52:29;;;;;;;5.88;2.50;;;;;;;-144.87;100.00;61487.56;4917571;29;20405;-80
2023/04/26 10:54:57;;;;;;;8.20;2.40;;;;;;;-144.87;100.00;61487.56;4915558;29;20115;-81
2023/04/26 10:57:51;;;;;;;7.10;2.35;;;;;;;-144.87;100.00;61487.56;4909736;29;20055;-81
2023/04/26 11:00:27;;;;;;;7.32;1.80;;;;;;;-144.87;100.00;61487.56;4934244;29;20043;-80
2023/04/26 11:03:02;;;;;;;4.05;1.70;;;;;;;-144.87;100.00;61487.56;4950298;28;20041;-80
2023/04/26 11:05:51;;;;;;;8.57;1.80;;;;;;;-144.87;100.00;61487.56;4936355;29;20050;-82